Parkerford, Pennsylvania
Current Conditions -  °F | °C
As of 11:54 PM on Monday 26 Jan 2015 (Local Time) from KPTW Reporting Station
Overcast Overcast  
Wind Chill: 15°   Ceiling: 3600
Heat Index: 24°   Visibility: 10mi
Dew Point: 17°   Wind: 8mph
Humidity: 75%   Direction: 10°N
Pressure: 29.73"   Gusts: NA
Location:  40.2094°N, 75.5919°W
Report Text: KPTW 270454Z AUTO 01007KT 10SM OVC036 M04/M08 A2973 RMK AO2 SLP069 T10441083 410171061
Loading
Personal Weather Stations






























Interactive Weather Map New forecast layout! Learn more

10-Day Weather Forecast

Advertisements
Track Severe Weather on mobile